sensor_id;sensor_type;location;lat;lon;timestamp;P1;durP1;ratioP1;P2;durP2;ratioP2
12800;SDS011;6464;42.494;27.470;2022-09-01T04:00:51;0.00;;;0.00;;
12800;SDS011;6464;42.494;27.470;2022-09-01T04:03:29;0.00;;;0.00;;
12800;SDS011;6464;42.494;27.470;2022-09-01T04:06:02;0.00;;;0.00;;
12800;SDS011;6464;42.494;27.470;2022-09-01T04:08:48;0.00;;;0.00;;
12800;SDS011;6464;42.494;27.470;2022-09-01T04:11:22;1.08;;;0.35;;
12800;SDS011;6464;42.494;27.470;2022-09-01T04:14:09;0.00;;;0.00;;
12800;SDS011;6464;42.494;27.470;2022-09-01T04:20:30;0.00;;;0.00;;
12800;SDS011;6464;42.494;27.470;2022-09-01T04:23:12;0.00;;;0.00;;
12800;SDS011;6464;42.494;27.470;2022-09-01T04:25:43;0.00;;;0.00;;
12800;SDS011;6464;42.494;27.470;2022-09-01T04:28:18;0.00;;;0.00;;
12800;SDS011;6464;42.494;27.470;2022-09-01T04:30:52;0.00;;;0.00;;
12800;SDS011;6464;42.494;27.470;2022-09-01T04:33:24;0.00;;;0.00;;
12800;SDS011;6464;42.494;27.470;2022-09-01T04:36:01;0.03;;;0.00;;
12800;SDS011;6464;42.494;27.470;2022-09-01T04:38:28;0.00;;;0.00;;
12800;SDS011;6464;42.494;27.470;2022-09-01T04:40:55;0.35;;;0.35;;
12800;SDS011;6464;42.494;27.470;2022-09-01T04:43:23;0.08;;;0.08;;
12800;SDS011;6464;42.494;27.470;2022-09-01T04:45:50;0.00;;;0.00;;
12800;SDS011;6464;42.494;27.470;2022-09-01T04:48:18;0.00;;;0.00;;
12800;SDS011;6464;42.494;27.470;2022-09-01T04:50:47;0.00;;;0.00;;
12800;SDS011;6464;42.494;27.470;2022-09-01T04:53:16;0.00;;;0.00;;
12800;SDS011;6464;42.494;27.470;2022-09-01T04:55:44;0.00;;;0.00;;
12800;SDS011;6464;42.494;27.470;2022-09-01T04:58:13;0.00;;;0.00;;
12800;SDS011;6464;42.494;27.470;2022-09-01T05:00:42;0.00;;;0.00;;
12800;SDS011;6464;42.494;27.470;2022-09-01T05:03:12;0.00;;;0.00;;
12800;SDS011;6464;42.494;27.470;2022-09-01T05:05:42;0.00;;;0.00;;
12800;SDS011;6464;42.494;27.470;2022-09-01T05:08:12;0.00;;;0.00;;
12800;SDS011;6464;42.494;27.470;2022-09-01T05:10:42;0.00;;;0.00;;
12800;SDS011;6464;42.494;27.470;2022-09-01T05:13:15;0.00;;;0.00;;
12800;SDS011;6464;42.494;27.470;2022-09-01T05:15:44;0.00;;;0.00;;
12800;SDS011;6464;42.494;27.470;2022-09-01T05:18:13;0.00;;;0.00;;
12800;SDS011;6464;42.494;27.470;2022-09-01T05:20:41;0.05;;;0.05;;
12800;SDS011;6464;42.494;27.470;2022-09-01T05:23:09;0.00;;;0.00;;
12800;SDS011;6464;42.494;27.470;2022-09-01T05:25:40;0.00;;;0.00;;
12800;SDS011;6464;42.494;27.470;2022-09-01T05:28:10;0.00;;;0.00;;
12800;SDS011;6464;42.494;27.470;2022-09-01T05:30:38;0.00;;;0.00;;
12800;SDS011;6464;42.494;27.470;2022-09-01T05:33:07;0.00;;;0.00;;
12800;SDS011;6464;42.494;27.470;2022-09-01T05:35:36;0.00;;;0.00;;
12800;SDS011;6464;42.494;27.470;2022-09-01T05:38:07;0.00;;;0.00;;
12800;SDS011;6464;42.494;27.470;2022-09-01T05:40:37;0.47;;;0.47;;
12800;SDS011;6464;42.494;27.470;2022-09-01T05:43:07;0.00;;;0.00;;
12800;SDS011;6464;42.494;27.470;2022-09-01T05:45:37;0.00;;;0.00;;
12800;SDS011;6464;42.494;27.470;2022-09-01T05:48:08;0.10;;;0.10;;
12800;SDS011;6464;42.494;27.470;2022-09-01T05:50:38;0.00;;;0.00;;
12800;SDS011;6464;42.494;27.470;2022-09-01T05:53:07;0.38;;;0.38;;
12800;SDS011;6464;42.494;27.470;2022-09-01T05:55:43;0.00;;;0.00;;
12800;SDS011;6464;42.494;27.470;2022-09-01T05:58:11;0.00;;;0.00;;
12800;SDS011;6464;42.494;27.470;2022-09-01T06:00:40;0.17;;;0.17;;
12800;SDS011;6464;42.494;27.470;2022-09-01T06:03:09;0.00;;;0.00;;
12800;SDS011;6464;42.494;27.470;2022-09-01T06:05:38;0.00;;;0.00;;
12800;SDS011;6464;42.494;27.470;2022-09-01T06:08:09;0.00;;;0.00;;
12800;SDS011;6464;42.494;27.470;2022-09-01T06:10:38;0.00;;;0.00;;
12800;SDS011;6464;42.494;27.470;2022-09-01T06:13:08;6.30;;;1.48;;
12800;SDS011;6464;42.494;27.470;2022-09-01T06:15:36;0.35;;;0.32;;
12800;SDS011;6464;42.494;27.470;2022-09-01T06:18:04;0.98;;;0.95;;
12800;SDS011;6464;42.494;27.470;2022-09-01T06:20:33;3.78;;;1.25;;
12800;SDS011;6464;42.494;27.470;2022-09-01T06:23:04;3.80;;;2.20;;
12800;SDS011;6464;42.494;27.470;2022-09-01T06:25:31;2.33;;;1.67;;
12800;SDS011;6464;42.494;27.470;2022-09-01T06:28:02;10.35;;;2.13;;
12800;SDS011;6464;42.494;27.470;2022-09-01T06:30:31;3.03;;;2.50;;
12800;SDS011;6464;42.494;27.470;2022-09-01T06:33:00;8.65;;;3.17;;
12800;SDS011;6464;42.494;27.470;2022-09-01T06:35:33;4.63;;;2.45;;
12800;SDS011;6464;42.494;27.470;2022-09-01T06:38:01;2.20;;;1.98;;
12800;SDS011;6464;42.494;27.470;2022-09-01T06:40:29;1.50;;;1.17;;
12800;SDS011;6464;42.494;27.470;2022-09-01T06:42:56;5.43;;;1.63;;
12800;SDS011;6464;42.494;27.470;2022-09-01T06:45:24;0.43;;;0.43;;
12800;SDS011;6464;42.494;27.470;2022-09-01T06:47:53;2.75;;;1.75;;
12800;SDS011;6464;42.494;27.470;2022-09-01T06:50:21;1.80;;;1.70;;
12800;SDS011;6464;42.494;27.470;2022-09-01T06:52:48;7.40;;;2.70;;
12800;SDS011;6464;42.494;27.470;2022-09-01T06:55:25;3.28;;;2.22;;
12800;SDS011;6464;42.494;27.470;2022-09-01T06:57:55;7.80;;;3.58;;
12800;SDS011;6464;42.494;27.470;2022-09-01T07:00:23;4.68;;;2.85;;
12800;SDS011;6464;42.494;27.470;2022-09-01T07:02:53;13.32;;;2.75;;
12800;SDS011;6464;42.494;27.470;2022-09-01T07:05:23;5.00;;;1.77;;
12800;SDS011;6464;42.494;27.470;2022-09-01T07:07:51;8.05;;;2.33;;
12800;SDS011;6464;42.494;27.470;2022-09-01T07:10:20;7.70;;;3.47;;
12800;SDS011;6464;42.494;27.470;2022-09-01T07:12:47;7.85;;;3.67;;
12800;SDS011;6464;42.494;27.470;2022-09-01T07:15:15;10.77;;;4.18;;
12800;SDS011;6464;42.494;27.470;2022-09-01T07:17:45;7.88;;;2.80;;
12800;SDS011;6464;42.494;27.470;2022-09-01T07:20:16;6.95;;;3.72;;
12800;SDS011;6464;42.494;27.470;2022-09-01T07:22:45;6.68;;;3.90;;
12800;SDS011;6464;42.494;27.470;2022-09-01T07:25:12;7.40;;;3.80;;
12800;SDS011;6464;42.494;27.470;2022-09-01T07:27:42;7.53;;;2.85;;
12800;SDS011;6464;42.494;27.470;2022-09-01T07:30:15;7.57;;;3.63;;
12800;SDS011;6464;42.494;27.470;2022-09-01T07:32:43;10.07;;;5.22;;
12800;SDS011;6464;42.494;27.470;2022-09-01T07:35:10;13.82;;;4.75;;
12800;SDS011;6464;42.494;27.470;2022-09-01T07:37:39;7.65;;;4.68;;
12800;SDS011;6464;42.494;27.470;2022-09-01T07:40:07;8.43;;;4.57;;
12800;SDS011;6464;42.494;27.470;2022-09-01T07:42:37;12.35;;;6.00;;
12800;SDS011;6464;42.494;27.470;2022-09-01T07:45:05;8.98;;;3.60;;
12800;SDS011;6464;42.494;27.470;2022-09-01T07:47:34;4.78;;;3.85;;
12800;SDS011;6464;42.494;27.470;2022-09-01T07:50:02;8.80;;;4.70;;
12800;SDS011;6464;42.494;27.470;2022-09-01T07:52:32;8.75;;;4.80;;
12800;SDS011;6464;42.494;27.470;2022-09-01T07:55:02;8.38;;;4.55;;
12800;SDS011;6464;42.494;27.470;2022-09-01T07:57:30;10.30;;;5.60;;
12800;SDS011;6464;42.494;27.470;2022-09-01T07:59:57;9.15;;;4.80;;
12800;SDS011;6464;42.494;27.470;2022-09-01T08:05:30;9.45;;;4.30;;
12800;SDS011;6464;42.494;27.470;2022-09-01T08:07:59;6.88;;;4.18;;
12800;SDS011;6464;42.494;27.470;2022-09-01T08:10:35;6.35;;;4.55;;
12800;SDS011;6464;42.494;27.470;2022-09-01T08:13:08;8.98;;;4.28;;
12800;SDS011;6464;42.494;27.470;2022-09-01T08:15:38;9.70;;;4.45;;
12800;SDS011;6464;42.494;27.470;2022-09-01T08:18:06;4.65;;;4.25;;
12800;SDS011;6464;42.494;27.470;2022-09-01T08:20:34;5.60;;;3.88;;
12800;SDS011;6464;42.494;27.470;2022-09-01T08:23:14;7.40;;;3.97;;
12800;SDS011;6464;42.494;27.470;2022-09-01T08:25:46;9.07;;;3.25;;
12800;SDS011;6464;42.494;27.470;2022-09-01T08:28:14;10.82;;;5.53;;
12800;SDS011;6464;42.494;27.470;2022-09-01T08:30:42;7.80;;;3.33;;
12800;SDS011;6464;42.494;27.470;2022-09-01T08:33:12;6.40;;;3.60;;
12800;SDS011;6464;42.494;27.470;2022-09-01T08:35:40;7.53;;;2.20;;
12800;SDS011;6464;42.494;27.470;2022-09-01T08:38:09;3.25;;;2.38;;
12800;SDS011;6464;42.494;27.470;2022-09-01T08:40:36;3.70;;;3.08;;
12800;SDS011;6464;42.494;27.470;2022-09-01T08:43:08;2.92;;;1.92;;
12800;SDS011;6464;42.494;27.470;2022-09-01T08:45:43;5.18;;;4.13;;
12800;SDS011;6464;42.494;27.470;2022-09-01T08:48:15;5.57;;;3.30;;
12800;SDS011;6464;42.494;27.470;2022-09-01T08:50:44;2.70;;;1.52;;
12800;SDS011;6464;42.494;27.470;2022-09-01T08:53:20;5.65;;;3.65;;
12800;SDS011;6464;42.494;27.470;2022-09-01T08:55:53;8.73;;;4.00;;
12800;SDS011;6464;42.494;27.470;2022-09-01T08:58:24;10.45;;;3.53;;
12800;SDS011;6464;42.494;27.470;2022-09-01T09:00:57;9.10;;;4.50;;
12800;SDS011;6464;42.494;27.470;2022-09-01T09:03:30;5.15;;;1.70;;
12800;SDS011;6464;42.494;27.470;2022-09-01T09:06:09;10.95;;;2.38;;
12800;SDS011;6464;42.494;27.470;2022-09-01T09:08:46;2.65;;;1.48;;
12800;SDS011;6464;42.494;27.470;2022-09-01T09:11:23;4.88;;;2.47;;
12800;SDS011;6464;42.494;27.470;2022-09-01T09:14:08;6.65;;;3.13;;
12800;SDS011;6464;42.494;27.470;2022-09-01T09:16:39;4.93;;;3.90;;
12800;SDS011;6464;42.494;27.470;2022-09-01T09:19:09;4.55;;;3.30;;
12800;SDS011;6464;42.494;27.470;2022-09-01T09:21:48;7.45;;;3.88;;
12800;SDS011;6464;42.494;27.470;2022-09-01T09:24:18;9.15;;;2.58;;
12800;SDS011;6464;42.494;27.470;2022-09-01T09:26:52;3.70;;;2.20;;
12800;SDS011;6464;42.494;27.470;2022-09-01T09:29:21;3.28;;;1.48;;
12800;SDS011;6464;42.494;27.470;2022-09-01T09:31:48;3.28;;;2.00;;
12800;SDS011;6464;42.494;27.470;2022-09-01T09:34:29;5.63;;;2.33;;
12800;SDS011;6464;42.494;27.470;2022-09-01T09:37:15;10.65;;;4.07;;
12800;SDS011;6464;42.494;27.470;2022-09-01T09:39:46;3.88;;;2.00;;
12800;SDS011;6464;42.494;27.470;2022-09-01T09:42:28;1.73;;;1.35;;
12800;SDS011;6464;42.494;27.470;2022-09-01T09:44:56;1.58;;;1.48;;
12800;SDS011;6464;42.494;27.470;2022-09-01T09:47:34;4.63;;;3.60;;
12800;SDS011;6464;42.494;27.470;2022-09-01T09:50:09;5.82;;;2.80;;
12800;SDS011;6464;42.494;27.470;2022-09-01T09:52:42;5.25;;;2.63;;
12800;SDS011;6464;42.494;27.470;2022-09-01T09:55:18;6.70;;;3.05;;
12800;SDS011;6464;42.494;27.470;2022-09-01T09:57:48;6.45;;;2.08;;
12800;SDS011;6464;42.494;27.470;2022-09-01T10:00:19;4.72;;;2.80;;
12800;SDS011;6464;42.494;27.470;2022-09-01T10:02:50;6.72;;;3.75;;
12800;SDS011;6464;42.494;27.470;2022-09-01T10:08:13;3.42;;;1.20;;
12800;SDS011;6464;42.494;27.470;2022-09-01T10:11:01;2.45;;;0.95;;
12800;SDS011;6464;42.494;27.470;2022-09-01T10:13:29;3.53;;;2.17;;
12800;SDS011;6464;42.494;27.470;2022-09-01T10:16:02;2.72;;;1.38;;
12800;SDS011;6464;42.494;27.470;2022-09-01T10:18:34;5.22;;;2.70;;
12800;SDS011;6464;42.494;27.470;2022-09-01T10:21:03;5.55;;;3.40;;
12800;SDS011;6464;42.494;27.470;2022-09-01T10:23:34;4.20;;;1.40;;
12800;SDS011;6464;42.494;27.470;2022-09-01T10:26:03;1.77;;;1.50;;
12800;SDS011;6464;42.494;27.470;2022-09-01T10:28:36;1.85;;;1.60;;
12800;SDS011;6464;42.494;27.470;2022-09-01T10:31:10;7.07;;;2.90;;
12800;SDS011;6464;42.494;27.470;2022-09-01T10:33:39;6.78;;;2.30;;
12800;SDS011;6464;42.494;27.470;2022-09-01T10:36:06;3.15;;;1.10;;
12800;SDS011;6464;42.494;27.470;2022-09-01T10:38:34;2.45;;;2.15;;
12800;SDS011;6464;42.494;27.470;2022-09-01T10:41:01;3.55;;;1.98;;
12800;SDS011;6464;42.494;27.470;2022-09-01T10:43:36;8.85;;;3.28;;
12800;SDS011;6464;42.494;27.470;2022-09-01T10:55:14;1.45;;;1.35;;
12800;SDS011;6464;42.494;27.470;2022-09-01T10:57:47;1.70;;;1.35;;
12800;SDS011;6464;42.494;27.470;2022-09-01T11:06:01;2.80;;;1.05;;
12800;SDS011;6464;42.494;27.470;2022-09-01T11:08:43;1.40;;;1.30;;
12800;SDS011;6464;42.494;27.470;2022-09-01T11:11:15;0.75;;;0.75;;
12800;SDS011;6464;42.494;27.470;2022-09-01T11:13:52;2.75;;;1.08;;
12800;SDS011;6464;42.494;27.470;2022-09-01T11:16:27;7.22;;;1.85;;
12800;SDS011;6464;42.494;27.470;2022-09-01T11:19:17;0.88;;;0.88;;
12800;SDS011;6464;42.494;27.470;2022-09-01T11:22:02;1.95;;;0.90;;
12800;SDS011;6464;42.494;27.470;2022-09-01T11:24:51;8.10;;;3.25;;
12800;SDS011;6464;42.494;27.470;2022-09-01T11:30:22;1.90;;;1.60;;
12800;SDS011;6464;42.494;27.470;2022-09-01T11:32:58;7.55;;;2.30;;
12800;SDS011;6464;42.494;27.470;2022-09-01T11:35:38;1.73;;;1.63;;
12800;SDS011;6464;42.494;27.470;2022-09-01T11:38:05;4.25;;;1.25;;
12800;SDS011;6464;42.494;27.470;2022-09-01T11:40:34;1.30;;;1.20;;
12800;SDS011;6464;42.494;27.470;2022-09-01T11:43:02;3.33;;;2.78;;
12800;SDS011;6464;42.494;27.470;2022-09-01T11:45:34;7.20;;;2.70;;
12800;SDS011;6464;42.494;27.470;2022-09-01T11:48:10;13.43;;;2.63;;
12800;SDS011;6464;42.494;27.470;2022-09-01T11:50:41;4.10;;;3.28;;
12800;SDS011;6464;42.494;27.470;2022-09-01T11:53:09;4.07;;;1.75;;
12800;SDS011;6464;42.494;27.470;2022-09-01T11:55:39;1.92;;;1.67;;
12800;SDS011;6464;42.494;27.470;2022-09-01T11:58:09;7.50;;;3.28;;
12800;SDS011;6464;42.494;27.470;2022-09-01T12:00:38;4.93;;;3.28;;
12800;SDS011;6464;42.494;27.470;2022-09-01T12:03:17;4.97;;;2.83;;
12800;SDS011;6464;42.494;27.470;2022-09-01T12:05:51;3.35;;;1.48;;
12800;SDS011;6464;42.494;27.470;2022-09-01T12:08:24;2.90;;;2.15;;
12800;SDS011;6464;42.494;27.470;2022-09-01T12:11:01;3.28;;;2.17;;
12800;SDS011;6464;42.494;27.470;2022-09-01T12:13:30;2.63;;;2.13;;
12800;SDS011;6464;42.494;27.470;2022-09-01T12:15:58;1.48;;;1.38;;
12800;SDS011;6464;42.494;27.470;2022-09-01T12:18:27;2.55;;;2.28;;
12800;SDS011;6464;42.494;27.470;2022-09-01T12:20:57;2.38;;;1.60;;
12800;SDS011;6464;42.494;27.470;2022-09-01T12:23:27;6.25;;;0.80;;
12800;SDS011;6464;42.494;27.470;2022-09-01T12:25:56;4.00;;;1.95;;
12800;SDS011;6464;42.494;27.470;2022-09-01T12:28:25;0.98;;;0.98;;
12800;SDS011;6464;42.494;27.470;2022-09-01T12:30:55;2.15;;;1.50;;
12800;SDS011;6464;42.494;27.470;2022-09-01T12:33:24;0.40;;;0.40;;
12800;SDS011;6464;42.494;27.470;2022-09-01T12:38:45;7.93;;;1.25;;
12800;SDS011;6464;42.494;27.470;2022-09-01T12:41:22;1.25;;;1.13;;
12800;SDS011;6464;42.494;27.470;2022-09-01T12:43:51;3.95;;;1.73;;
12800;SDS011;6464;42.494;27.470;2022-09-01T12:49:17;1.08;;;0.98;;
12800;SDS011;6464;42.494;27.470;2022-09-01T12:51:46;2.65;;;1.17;;
12800;SDS011;6464;42.494;27.470;2022-09-01T12:54:13;0.98;;;0.82;;
12800;SDS011;6464;42.494;27.470;2022-09-01T12:56:45;2.75;;;1.30;;
12800;SDS011;6464;42.494;27.470;2022-09-01T12:59:20;5.40;;;2.15;;
12800;SDS011;6464;42.494;27.470;2022-09-01T13:01:48;0.65;;;0.65;;
12800;SDS011;6464;42.494;27.470;2022-09-01T13:04:23;1.65;;;0.80;;
12800;SDS011;6464;42.494;27.470;2022-09-01T13:06:54;2.70;;;2.50;;
12800;SDS011;6464;42.494;27.470;2022-09-01T13:09:25;5.30;;;1.98;;
12800;SDS011;6464;42.494;27.470;2022-09-01T13:11:52;5.38;;;1.75;;
12800;SDS011;6464;42.494;27.470;2022-09-01T13:14:19;3.22;;;1.58;;
12800;SDS011;6464;42.494;27.470;2022-09-01T13:16:48;4.07;;;1.67;;
12800;SDS011;6464;42.494;27.470;2022-09-01T13:19:15;5.45;;;1.67;;
12800;SDS011;6464;42.494;27.470;2022-09-01T13:21:42;3.95;;;2.15;;
12800;SDS011;6464;42.494;27.470;2022-09-01T13:24:10;1.92;;;1.40;;
12800;SDS011;6464;42.494;27.470;2022-09-01T13:26:37;2.58;;;1.13;;
12800;SDS011;6464;42.494;27.470;2022-09-01T13:29:04;2.75;;;0.90;;
12800;SDS011;6464;42.494;27.470;2022-09-01T13:31:31;1.77;;;1.50;;
12800;SDS011;6464;42.494;27.470;2022-09-01T13:33:58;2.55;;;1.80;;
12800;SDS011;6464;42.494;27.470;2022-09-01T13:36:25;1.45;;;0.93;;
12800;SDS011;6464;42.494;27.470;2022-09-01T13:38:52;3.45;;;1.05;;
12800;SDS011;6464;42.494;27.470;2022-09-01T13:41:20;5.90;;;2.05;;
12800;SDS011;6464;42.494;27.470;2022-09-01T13:43:47;1.23;;;1.13;;
12800;SDS011;6464;42.494;27.470;2022-09-01T13:46:14;3.97;;;1.50;;
12800;SDS011;6464;42.494;27.470;2022-09-01T13:48:41;2.70;;;1.77;;
12800;SDS011;6464;42.494;27.470;2022-09-01T13:51:08;5.57;;;2.65;;
12800;SDS011;6464;42.494;27.470;2022-09-01T13:53:35;0.95;;;0.93;;
12800;SDS011;6464;42.494;27.470;2022-09-01T13:56:02;7.60;;;3.13;;
12800;SDS011;6464;42.494;27.470;2022-09-01T13:58:31;3.42;;;1.20;;
12800;SDS011;6464;42.494;27.470;2022-09-01T14:00:58;4.50;;;2.15;;
12800;SDS011;6464;42.494;27.470;2022-09-01T14:03:26;1.85;;;1.27;;
12800;SDS011;6464;42.494;27.470;2022-09-01T14:05:56;5.88;;;1.77;;
12800;SDS011;6464;42.494;27.470;2022-09-01T14:08:23;1.90;;;1.35;;
12800;SDS011;6464;42.494;27.470;2022-09-01T14:10:50;4.07;;;2.38;;
12800;SDS011;6464;42.494;27.470;2022-09-01T14:13:19;0.93;;;0.93;;
12800;SDS011;6464;42.494;27.470;2022-09-01T14:15:48;2.35;;;1.33;;
12800;SDS011;6464;42.494;27.470;2022-09-01T14:18:17;7.32;;;2.75;;
12800;SDS011;6464;42.494;27.470;2022-09-01T14:20:46;1.75;;;1.23;;
12800;SDS011;6464;42.494;27.470;2022-09-01T14:23:16;2.60;;;1.55;;
12800;SDS011;6464;42.494;27.470;2022-09-01T14:25:45;4.03;;;2.53;;
12800;SDS011;6464;42.494;27.470;2022-09-01T14:28:14;4.07;;;2.13;;
12800;SDS011;6464;42.494;27.470;2022-09-01T14:30:42;7.70;;;2.67;;
12800;SDS011;6464;42.494;27.470;2022-09-01T14:33:10;4.72;;;4.18;;
12800;SDS011;6464;42.494;27.470;2022-09-01T14:35:38;5.15;;;2.25;;
12800;SDS011;6464;42.494;27.470;2022-09-01T14:38:07;3.72;;;1.48;;
12800;SDS011;6464;42.494;27.470;2022-09-01T14:40:36;1.83;;;1.42;;
12800;SDS011;6464;42.494;27.470;2022-09-01T14:43:04;3.30;;;2.95;;
12800;SDS011;6464;42.494;27.470;2022-09-01T14:45:34;3.10;;;1.83;;
12800;SDS011;6464;42.494;27.470;2022-09-01T14:48:01;5.80;;;2.13;;
12800;SDS011;6464;42.494;27.470;2022-09-01T14:50:31;2.22;;;1.70;;
12800;SDS011;6464;42.494;27.470;2022-09-01T14:52:59;3.72;;;2.22;;
12800;SDS011;6464;42.494;27.470;2022-09-01T14:55:28;3.28;;;1.52;;
12800;SDS011;6464;42.494;27.470;2022-09-01T14:57:57;0.90;;;0.90;;
12800;SDS011;6464;42.494;27.470;2022-09-01T15:00:24;4.50;;;2.15;;
12800;SDS011;6464;42.494;27.470;2022-09-01T15:02:52;3.47;;;2.25;;
12800;SDS011;6464;42.494;27.470;2022-09-01T15:05:20;1.35;;;1.20;;
12800;SDS011;6464;42.494;27.470;2022-09-01T15:07:51;5.45;;;1.15;;
12800;SDS011;6464;42.494;27.470;2022-09-01T15:10:19;3.65;;;3.08;;
12800;SDS011;6464;42.494;27.470;2022-09-01T15:12:48;6.55;;;2.97;;
12800;SDS011;6464;42.494;27.470;2022-09-01T15:15:15;9.07;;;3.42;;
12800;SDS011;6464;42.494;27.470;2022-09-01T15:17:43;2.17;;;1.35;;
12800;SDS011;6464;42.494;27.470;2022-09-01T15:20:10;2.28;;;0.85;;
12800;SDS011;6464;42.494;27.470;2022-09-01T15:22:56;3.78;;;1.92;;
12800;SDS011;6464;42.494;27.470;2022-09-01T15:25:23;2.83;;;1.90;;
12800;SDS011;6464;42.494;27.470;2022-09-01T15:27:50;2.70;;;1.05;;
12800;SDS011;6464;42.494;27.470;2022-09-01T15:30:17;1.65;;;1.17;;
12800;SDS011;6464;42.494;27.470;2022-09-01T15:32:46;2.20;;;1.17;;
12800;SDS011;6464;42.494;27.470;2022-09-01T15:35:15;5.53;;;1.98;;
12800;SDS011;6464;42.494;27.470;2022-09-01T15:37:44;4.93;;;2.38;;
12800;SDS011;6464;42.494;27.470;2022-09-01T15:40:13;6.45;;;2.90;;
12800;SDS011;6464;42.494;27.470;2022-09-01T15:42:40;4.68;;;3.28;;
12800;SDS011;6464;42.494;27.470;2022-09-01T15:45:09;8.20;;;2.97;;
12800;SDS011;6464;42.494;27.470;2022-09-01T15:47:37;9.45;;;4.30;;
12800;SDS011;6464;42.494;27.470;2022-09-01T15:50:05;6.65;;;2.90;;
12800;SDS011;6464;42.494;27.470;2022-09-01T15:52:35;2.60;;;2.13;;
12800;SDS011;6464;42.494;27.470;2022-09-01T15:55:15;5.00;;;3.10;;
12800;SDS011;6464;42.494;27.470;2022-09-01T15:57:45;1.60;;;1.50;;
12800;SDS011;6464;42.494;27.470;2022-09-01T16:00:12;1.42;;;1.33;;
12800;SDS011;6464;42.494;27.470;2022-09-01T16:02:40;3.15;;;1.55;;
12800;SDS011;6464;42.494;27.470;2022-09-01T16:05:07;1.40;;;1.15;;
12800;SDS011;6464;42.494;27.470;2022-09-01T16:07:35;4.15;;;2.40;;
12800;SDS011;6464;42.494;27.470;2022-09-01T16:10:02;1.92;;;1.55;;
12800;SDS011;6464;42.494;27.470;2022-09-01T16:12:32;4.13;;;2.08;;
12800;SDS011;6464;42.494;27.470;2022-09-01T16:14:59;6.65;;;3.17;;
12800;SDS011;6464;42.494;27.470;2022-09-01T16:17:28;8.32;;;2.90;;
12800;SDS011;6464;42.494;27.470;2022-09-01T16:20:17;4.80;;;2.75;;
12800;SDS011;6464;42.494;27.470;2022-09-01T16:22:49;8.10;;;3.45;;
12800;SDS011;6464;42.494;27.470;2022-09-01T16:25:23;2.25;;;2.05;;
12800;SDS011;6464;42.494;27.470;2022-09-01T16:27:55;4.10;;;2.45;;
12800;SDS011;6464;42.494;27.470;2022-09-01T16:30:23;0.60;;;0.60;;
12800;SDS011;6464;42.494;27.470;2022-09-01T16:32:52;2.50;;;1.80;;
12800;SDS011;6464;42.494;27.470;2022-09-01T16:35:24;1.00;;;0.40;;
12800;SDS011;6464;42.494;27.470;2022-09-01T16:37:59;4.68;;;2.78;;
12800;SDS011;6464;42.494;27.470;2022-09-01T16:40:37;8.10;;;3.35;;
12800;SDS011;6464;42.494;27.470;2022-09-01T16:43:14;2.72;;;2.35;;
12800;SDS011;6464;42.494;27.470;2022-09-01T16:45:51;5.45;;;2.13;;
12800;SDS011;6464;42.494;27.470;2022-09-01T16:48:27;4.55;;;2.22;;
12800;SDS011;6464;42.494;27.470;2022-09-01T16:51:02;2.70;;;1.60;;
12800;SDS011;6464;42.494;27.470;2022-09-01T16:56:27;10.88;;;3.00;;
12800;SDS011;6464;42.494;27.470;2022-09-01T16:59:01;4.97;;;2.08;;
12800;SDS011;6464;42.494;27.470;2022-09-01T17:01:44;4.10;;;1.92;;
12800;SDS011;6464;42.494;27.470;2022-09-01T17:04:27;7.45;;;4.30;;
12800;SDS011;6464;42.494;27.470;2022-09-01T17:07:04;5.25;;;3.65;;
12800;SDS011;6464;42.494;27.470;2022-09-01T17:09:39;8.10;;;3.85;;
12800;SDS011;6464;42.494;27.470;2022-09-01T17:12:13;2.38;;;1.35;;
12800;SDS011;6464;42.494;27.470;2022-09-01T17:14:54;5.72;;;1.50;;
12800;SDS011;6464;42.494;27.470;2022-09-01T17:17:25;6.22;;;3.88;;
12800;SDS011;6464;42.494;27.470;2022-09-01T17:19:58;2.38;;;1.80;;
12800;SDS011;6464;42.494;27.470;2022-09-01T17:22:27;2.45;;;1.52;;
12800;SDS011;6464;42.494;27.470;2022-09-01T17:24:58;5.20;;;3.00;;
12800;SDS011;6464;42.494;27.470;2022-09-01T17:27:30;6.72;;;2.33;;
12800;SDS011;6464;42.494;27.470;2022-09-01T17:30:03;5.10;;;1.65;;
12800;SDS011;6464;42.494;27.470;2022-09-01T17:35:22;8.52;;;4.10;;
12800;SDS011;6464;42.494;27.470;2022-09-01T17:38:04;1.83;;;1.45;;
12800;SDS011;6464;42.494;27.470;2022-09-01T17:40:48;2.58;;;1.73;;
12800;SDS011;6464;42.494;27.470;2022-09-01T17:43:24;9.65;;;3.63;;
12800;SDS011;6464;42.494;27.470;2022-09-01T17:46:01;3.20;;;1.50;;
12800;SDS011;6464;42.494;27.470;2022-09-01T17:48:39;2.20;;;1.05;;
12800;SDS011;6464;42.494;27.470;2022-09-01T17:51:15;11.98;;;0.82;;
12800;SDS011;6464;42.494;27.470;2022-09-01T17:53:52;3.78;;;1.35;;
12800;SDS011;6464;42.494;27.470;2022-09-01T17:56:34;9.00;;;2.40;;
12800;SDS011;6464;42.494;27.470;2022-09-01T17:59:08;3.15;;;1.90;;
12800;SDS011;6464;42.494;27.470;2022-09-01T18:01:44;1.50;;;1.23;;
12800;SDS011;6464;42.494;27.470;2022-09-01T18:04:26;7.13;;;2.10;;
12800;SDS011;6464;42.494;27.470;2022-09-01T18:07:15;1.65;;;1.38;;
12800;SDS011;6464;42.494;27.470;2022-09-01T18:09:55;0.73;;;0.63;;
12800;SDS011;6464;42.494;27.470;2022-09-01T18:12:27;0.20;;;0.20;;
12800;SDS011;6464;42.494;27.470;2022-09-01T18:14:58;0.05;;;0.05;;
12800;SDS011;6464;42.494;27.470;2022-09-01T18:17:34;0.00;;;0.00;;
12800;SDS011;6464;42.494;27.470;2022-09-01T18:20:06;0.52;;;0.52;;
12800;SDS011;6464;42.494;27.470;2022-09-01T18:22:38;0.20;;;0.20;;
12800;SDS011;6464;42.494;27.470;2022-09-01T18:25:10;1.45;;;0.32;;
12800;SDS011;6464;42.494;27.470;2022-09-01T18:27:42;0.00;;;0.00;;
12800;SDS011;6464;42.494;27.470;2022-09-01T18:30:13;0.52;;;0.52;;
12800;SDS011;6464;42.494;27.470;2022-09-01T18:32:44;0.20;;;0.20;;
12800;SDS011;6464;42.494;27.470;2022-09-01T18:35:23;1.13;;;0.32;;
12800;SDS011;6464;42.494;27.470;2022-09-01T18:40:51;0.10;;;0.10;;
12800;SDS011;6464;42.494;27.470;2022-09-01T18:43:28;0.00;;;0.00;;
12800;SDS011;6464;42.494;27.470;2022-09-01T18:46:02;0.00;;;0.00;;
12800;SDS011;6464;42.494;27.470;2022-09-01T18:48:44;0.00;;;0.00;;
12800;SDS011;6464;42.494;27.470;2022-09-01T18:51:22;0.30;;;0.30;;
12800;SDS011;6464;42.494;27.470;2022-09-01T18:54:08;0.22;;;0.10;;
12800;SDS011;6464;42.494;27.470;2022-09-01T18:56:53;0.00;;;0.00;;
12800;SDS011;6464;42.494;27.470;2022-09-01T18:59:47;0.35;;;0.35;;
12800;SDS011;6464;42.494;27.470;2022-09-01T19:05:52;0.47;;;0.47;;
12800;SDS011;6464;42.494;27.470;2022-09-01T19:08:35;0.20;;;0.20;;
12800;SDS011;6464;42.494;27.470;2022-09-01T19:11:26;0.05;;;0.00;;
12800;SDS011;6464;42.494;27.470;2022-09-01T19:14:27;1.00;;;1.00;;
12800;SDS011;6464;42.494;27.470;2022-09-01T19:20:03;2.17;;;0.17;;
12800;SDS011;6464;42.494;27.470;2022-09-01T19:25:48;0.45;;;0.45;;
12800;SDS011;6464;42.494;27.470;2022-09-01T19:28:43;0.00;;;0.00;;
12800;SDS011;6464;42.494;27.470;2022-09-01T19:31:22;6.40;;;0.65;;
12800;SDS011;6464;42.494;27.470;2022-09-01T19:33:59;0.25;;;0.20;;
12800;SDS011;6464;42.494;27.470;2022-09-01T19:36:35;0.00;;;0.00;;
12800;SDS011;6464;42.494;27.470;2022-09-01T19:39:23;0.47;;;0.47;;
12800;SDS011;6464;42.494;27.470;2022-09-01T19:42:10;0.38;;;0.38;;
12800;SDS011;6464;42.494;27.470;2022-09-01T19:44:53;0.00;;;0.00;;
12800;SDS011;6464;42.494;27.470;2022-09-01T19:47:41;0.30;;;0.30;;
12800;SDS011;6464;42.494;27.470;2022-09-01T19:50:23;0.17;;;0.17;;
12800;SDS011;6464;42.494;27.470;2022-09-01T19:53:13;0.22;;;0.22;;
12800;SDS011;6464;42.494;27.470;2022-09-01T19:56:01;0.40;;;0.40;;
12800;SDS011;6464;42.494;27.470;2022-09-01T19:58:42;0.43;;;0.43;;
12800;SDS011;6464;42.494;27.470;2022-09-01T20:01:34;0.00;;;0.00;;
12800;SDS011;6464;42.494;27.470;2022-09-01T20:04:13;0.40;;;0.40;;
12800;SDS011;6464;42.494;27.470;2022-09-01T20:07:02;0.10;;;0.10;;
12800;SDS011;6464;42.494;27.470;2022-09-01T20:09:50;0.00;;;0.00;;